KLGA/LGA METAR and TAF weather

Enter ICAO airport designator
Station Type Date Time Source
KLGA METAR 2020/02/19 14:51 UTC NOAA

KLGA 191451Z 31013KT 10SM FEW250 06/M06 A3022 RMK AO2 SLP231 T00561061 51025


Station Type Date Time Source
KLGA Decoded METAR 2020/02/19 14:51 UTC NOAA

NEW YORK LA GUARDIA AIRPORT , NY, United States (KLGA) 40-47N 73-53W 11M
Feb 19, 2020 - 09:51 AM EST / 2020.02.19 1451 UTC
Wind: from the NW (310 degrees) at 15 MPH (13 KT):0
Visibility: 10 mile(s):0
Sky conditions: mostly clear
Temperature: 42.1 F (5.6 C)
Dew Point: 21.0 F (-6.1 C)
Relative Humidity: 42%
Pressure (altimeter): 30.22 in. Hg (1023 hPa)
Pressure tendency: 0.07 inches (2.5 hPa) higher than three hours ago
ob: KLGA 191451Z 31013KT 10SM FEW250 06/M06 A3022 RMK AO2 SLP231 T00561061 51025
cycle: 15

Station Type Date Time Source
KLGA TAF 2020/02/19 14:48 UTC NOAA

TAF
AMD KLGA 191346Z 1914/2018 32016G23KT P6SM FEW250
FM191800 32018G26KT P6SM FEW100
FM200000 32012G21KT P6SM SKC
FM200400 32009KT P6SM SKC

Example: see airport list